Time;durP1;ratioP1;P1;durP2;ratioP2;P2;SDS_P1;SDS_P2;PMS_P1;PMS_P2;Temp;Humidity;BMP_temperature;BMP_pressure;BME280_temperature;BME280_humidity;BME280_pressure;Samples;Min_cycle;Max_cycle;Signal;HPM_P1;HPM_P2
2021/07/22 00:00:31;;;;;;;9.67;7.80;;;18.70;98.30;;;;;;5126833;23;20445;-83
2021/07/22 00:02:33;;;;;;;9.10;7.60;;;18.80;98.30;;;;;;5119800;23;20411;-83
2021/07/22 00:04:36;;;;;;;10.20;7.57;;;18.90;98.30;;;;;;5126747;23;20418;-83
2021/07/22 00:06:41;;;;;;;8.10;7.30;;;18.80;98.30;;;;;;5118432;23;20433;-82
2021/07/22 00:08:43;;;;;;;8.97;7.80;;;18.80;98.30;;;;;;5118696;23;20425;-83
2021/07/22 00:10:46;;;;;;;8.83;7.03;;;18.80;98.30;;;;;;5118330;23;20961;-83
2021/07/22 00:12:49;;;;;;;9.67;7.90;;;18.80;98.30;;;;;;5119552;23;20966;-82
2021/07/22 00:14:52;;;;;;;10.10;7.53;;;18.80;98.30;;;;;;5127651;23;20422;-83
2021/07/22 00:16:55;;;;;;;9.60;7.63;;;18.70;98.30;;;;;;5119377;23;21020;-83
2021/07/22 00:18:58;;;;;;;9.70;7.03;;;18.70;98.30;;;;;;5118937;23;20438;-83
2021/07/22 00:21:01;;;;;;;11.30;7.57;;;18.70;98.30;;;;;;5118719;23;20457;-82
2021/07/22 00:23:05;;;;;;;10.13;7.80;;;18.60;98.30;;;;;;5125053;23;20921;-83
2021/07/22 00:25:09;;;;;;;11.10;7.03;;;18.60;98.30;;;;;;5126367;23;20772;-83
2021/07/22 00:27:15;;;;;;;8.57;7.63;;;18.70;98.30;;;;;;5121201;23;20517;-83
2021/07/22 00:29:19;;;;;;;12.57;7.13;;;18.70;98.30;;;;;;5122456;23;20457;-83
2021/07/22 00:31:21;;;;;;;8.57;7.50;;;18.70;98.30;;;;;;5117100;23;20775;-83
2021/07/22 00:33:24;;;;;;;10.20;7.07;;;18.70;98.30;;;;;;5116278;23;20450;-83
2021/07/22 00:35:27;;;;;;;8.57;6.60;;;18.70;98.30;;;;;;5115511;23;20947;-84
2021/07/22 00:37:30;;;;;;;10.70;8.30;;;18.60;98.30;;;;;;5123615;23;20899;-83
2021/07/22 00:39:36;;;;;;;8.60;7.10;;;18.60;98.30;;;;;;5115257;23;20516;-84
2021/07/22 00:41:40;;;;;;;7.73;7.00;;;18.60;98.30;;;;;;5116196;23;20450;-83
2021/07/22 00:43:43;;;;;;;11.40;8.73;;;18.50;98.30;;;;;;5119478;23;20480;-83
2021/07/22 00:45:45;;;;;;;10.03;8.03;;;18.50;98.30;;;;;;5126550;23;20429;-83
2021/07/22 00:47:47;;;;;;;10.93;7.80;;;18.50;98.30;;;;;;5125784;23;20504;-83
2021/07/22 00:49:51;;;;;;;10.50;7.57;;;18.50;98.30;;;;;;5118166;23;20946;-83
2021/07/22 00:51:54;;;;;;;9.90;7.83;;;18.50;98.30;;;;;;5127995;23;20426;-83
2021/07/22 00:53:57;;;;;;;15.67;8.13;;;18.50;98.30;;;;;;5118420;23;20783;-83
2021/07/22 00:56:01;;;;;;;10.80;8.57;;;18.60;98.30;;;;;;5119255;23;20437;-83
2021/07/22 00:58:04;;;;;;;10.67;6.70;;;18.60;98.30;;;;;;5125349;23;20433;-83
2021/07/22 01:00:08;;;;;;;14.43;7.67;;;18.50;98.30;;;;;;5117604;23;20955;-82
2021/07/22 01:02:11;;;;;;;10.17;7.10;;;18.40;98.30;;;;;;5126304;23;20917;-82
2021/07/22 01:04:14;;;;;;;11.80;8.90;;;18.40;98.30;;;;;;5117147;23;20437;-83
2021/07/22 01:06:17;;;;;;;10.03;7.17;;;18.40;98.30;;;;;;5118757;23;20977;-82
2021/07/22 01:08:20;;;;;;;10.00;6.90;;;18.40;98.30;;;;;;5124797;23;20436;-83
2021/07/22 01:10:23;;;;;;;8.60;7.63;;;18.40;98.30;;;;;;5116710;23;20454;-83
2021/07/22 01:12:27;;;;;;;9.50;7.10;;;18.50;98.30;;;;;;5125909;23;20441;-82
2021/07/22 01:14:30;;;;;;;11.97;7.27;;;18.50;98.30;;;;;;5117841;23;20426;-83
2021/07/22 01:16:33;;;;;;;9.10;6.97;;;18.50;98.30;;;;;;5118658;23;20496;-83
2021/07/22 01:18:36;;;;;;;8.80;6.83;;;18.60;98.30;;;;;;5119499;23;21012;-83
2021/07/22 01:20:40;;;;;;;10.07;7.20;;;18.60;98.30;;;;;;5119938;23;20450;-82
2021/07/22 01:22:43;;;;;;;7.90;6.40;;;18.60;98.30;;;;;;5129744;23;20449;-82
2021/07/22 01:24:46;;;;;;;8.27;6.90;;;18.50;98.30;;;;;;5122834;23;20440;-82
2021/07/22 01:26:49;;;;;;;7.33;6.67;;;18.40;98.30;;;;;;5124251;23;20440;-83
2021/07/22 01:28:52;;;;;;;7.87;7.10;;;18.40;98.30;;;;;;5128349;23;20433;-83
2021/07/22 01:30:54;;;;;;;11.43;6.90;;;18.40;98.30;;;;;;5127128;23;20445;-82
2021/07/22 01:32:57;;;;;;;8.53;7.27;;;18.30;98.30;;;;;;5119490;23;20519;-83
2021/07/22 01:35:00;;;;;;;9.40;7.37;;;18.30;98.30;;;;;;5118478;23;20448;-83
2021/07/22 01:37:05;;;;;;;8.40;6.53;;;18.30;98.30;;;;;;5127038;23;20611;-82
2021/07/22 01:39:08;;;;;;;11.10;7.70;;;18.30;98.30;;;;;;5117912;23;20426;-83
2021/07/22 01:41:10;;;;;;;12.40;7.53;;;18.30;98.30;;;;;;5118999;23;20975;-82
2021/07/22 01:43:13;;;;;;;9.90;7.60;;;18.30;98.30;;;;;;5119678;23;20862;-83
2021/07/22 01:45:16;;;;;;;7.80;7.00;;;18.20;98.30;;;;;;5127569;23;20460;-82
2021/07/22 01:47:19;;;;;;;11.07;7.20;;;18.20;98.30;;;;;;5128008;23;20426;-83
2021/07/22 01:49:22;;;;;;;9.57;7.57;;;18.30;98.30;;;;;;5119573;23;20732;-83
2021/07/22 01:51:25;;;;;;;9.20;6.73;;;18.30;98.30;;;;;;5117253;23;20460;-83
2021/07/22 01:53:28;;;;;;;9.43;7.00;;;18.30;98.30;;;;;;5116404;23;20450;-83
2021/07/22 01:55:31;;;;;;;10.00;7.20;;;18.40;98.30;;;;;;5116370;23;20442;-82
2021/07/22 01:57:34;;;;;;;9.57;6.77;;;18.40;98.30;;;;;;5116844;23;20444;-82
2021/07/22 01:59:37;;;;;;;9.93;6.93;;;18.40;98.30;;;;;;5125525;23;20422;-82
2021/07/22 02:01:40;;;;;;;9.50;7.13;;;18.40;98.30;;;;;;5117364;23;20457;-82
2021/07/22 02:03:43;;;;;;;11.83;7.77;;;18.40;98.30;;;;;;5117994;23;20738;-82
2021/07/22 02:05:46;;;;;;;8.83;6.23;;;18.40;98.30;;;;;;5125587;23;20481;-82
2021/07/22 02:07:49;;;;;;;7.13;6.13;;;18.40;98.30;;;;;;5117681;23;20430;-83
2021/07/22 02:09:53;;;;;;;11.13;6.97;;;18.30;98.30;;;;;;5125545;23;20506;-82
2021/07/22 02:11:57;;;;;;;7.57;6.80;;;18.30;98.30;;;;;;5117723;23;20426;-82
2021/07/22 02:14:00;;;;;;;9.30;6.70;;;18.30;98.30;;;;;;5116010;23;20458;-82
2021/07/22 02:16:06;;;;;;;11.33;7.33;;;18.20;98.30;;;;;;5124231;23;20815;-82
2021/07/22 02:18:09;;;;;;;7.53;6.70;;;18.20;98.30;;;;;;5115819;23;20418;-82
2021/07/22 02:20:12;;;;;;;10.00;6.53;;;18.20;98.30;;;;;;5116063;23;20450;-82
2021/07/22 02:22:16;;;;;;;8.40;7.20;;;18.30;98.30;;;;;;5116213;23;20480;-82
2021/07/22 02:24:19;;;;;;;7.20;6.10;;;18.30;98.30;;;;;;5115958;23;20462;-82
2021/07/22 02:26:23;;;;;;;11.90;7.73;;;18.40;98.30;;;;;;5116816;23;20429;-83
2021/07/22 02:28:26;;;;;;;7.53;6.60;;;18.40;98.30;;;;;;5115623;23;20440;-82
2021/07/22 02:30:29;;;;;;;7.50;6.80;;;18.40;98.30;;;;;;5117534;23;20454;-82
2021/07/22 02:32:32;;;;;;;11.87;6.67;;;18.40;98.30;;;;;;5122582;23;20434;-82
2021/07/22 02:34:34;;;;;;;8.70;7.17;;;18.30;98.30;;;;;;5130354;23;20854;-83
2021/07/22 02:36:37;;;;;;;8.83;7.90;;;18.30;98.30;;;;;;5117696;23;20438;-83
2021/07/22 02:38:40;;;;;;;8.10;6.33;;;18.30;98.30;;;;;;5117899;23;20430;-83
2021/07/22 02:40:44;;;;;;;7.50;6.80;;;18.30;98.30;;;;;;5118921;23;20525;-82
2021/07/22 02:42:48;;;;;;;7.93;7.13;;;18.30;98.30;;;;;;5119457;23;20464;-83
2021/07/22 02:44:51;;;;;;;9.10;7.03;;;18.30;98.30;;;;;;5126677;23;20437;-82
2021/07/22 02:46:54;;;;;;;7.00;6.30;;;18.30;98.30;;;;;;5126173;23;20744;-83
2021/07/22 02:48:57;;;;;;;9.43;6.67;;;18.30;98.30;;;;;;5117919;23;20998;-82
2021/07/22 02:51:00;;;;;;;7.20;6.50;;;18.30;98.30;;;;;;5126203;23;20450;-82
2021/07/22 02:53:04;;;;;;;12.43;7.20;;;18.30;98.30;;;;;;5117937;23;20430;-82
2021/07/22 02:55:07;;;;;;;8.40;6.73;;;18.20;98.30;;;;;;5118644;23;20780;-83
2021/07/22 02:57:10;;;;;;;8.20;7.23;;;18.20;98.30;;;;;;5125670;23;20422;-82
2021/07/22 02:59:14;;;;;;;10.43;6.27;;;18.20;98.30;;;;;;5119265;23;20938;-82
2021/07/22 03:01:17;;;;;;;11.73;8.00;;;18.20;98.30;;;;;;5118389;23;20461;-82
2021/07/22 03:03:21;;;;;;;12.40;9.50;;;18.10;98.30;;;;;;5128671;23;20445;-82
2021/07/22 03:05:24;;;;;;;16.80;11.33;;;18.10;98.30;;;;;;5119252;23;20741;-82
2021/07/22 03:07:27;;;;;;;16.43;9.20;;;18.00;98.30;;;;;;5127698;23;20422;-82
2021/07/22 03:09:30;;;;;;;12.30;7.53;;;18.00;98.30;;;;;;5119215;23;20426;-82
2021/07/22 03:11:33;;;;;;;15.20;8.20;;;18.00;98.30;;;;;;5119879;23;20803;-83
2021/07/22 03:13:36;;;;;;;14.63;9.00;;;17.90;98.30;;;;;;5127267;23;20823;-83
2021/07/22 03:15:40;;;;;;;11.83;7.40;;;17.90;98.30;;;;;;5119717;23;21000;-83
2021/07/22 03:17:43;;;;;;;9.07;7.70;;;17.90;98.30;;;;;;5127668;23;20461;-82
2021/07/22 03:19:46;;;;;;;11.27;7.37;;;17.90;98.30;;;;;;5120205;23;20433;-82
2021/07/22 03:21:49;;;;;;;8.60;6.90;;;17.90;98.30;;;;;;5120643;23;20429;-82
2021/07/22 03:23:51;;;;;;;12.33;8.10;;;17.90;98.30;;;;;;5117626;23;20440;-82
2021/07/22 03:25:54;;;;;;;7.87;6.77;;;17.90;98.30;;;;;;5120454;23;20763;-82
2021/07/22 03:28:00;;;;;;;10.70;7.30;;;17.90;98.30;;;;;;5120375;23;20516;-82
2021/07/22 03:30:04;;;;;;;7.93;7.13;;;17.80;98.30;;;;;;5120264;23;20420;-83
2021/07/22 03:32:09;;;;;;;10.10;6.60;;;17.70;98.30;;;;;;5128062;23;20509;-83
2021/07/22 03:34:13;;;;;;;9.20;7.60;;;17.50;98.30;;;;;;5121434;23;20472;-82
2021/07/22 03:36:16;;;;;;;7.50;6.60;;;17.20;98.30;;;;;;5121366;23;20498;-82
2021/07/22 03:38:19;;;;;;;9.07;6.43;;;17.10;98.30;;;;;;5124360;23;20834;-83
2021/07/22 03:40:22;;;;;;;12.20;8.07;;;17.10;98.30;;;;;;5117230;23;20460;-82
2021/07/22 03:42:27;;;;;;;8.53;6.60;;;17.00;98.30;;;;;;5119079;23;20437;-83
2021/07/22 03:44:30;;;;;;;12.40;7.30;;;17.00;98.30;;;;;;5118373;23;20495;-83
2021/07/22 03:46:33;;;;;;;8.90;6.53;;;16.90;98.30;;;;;;5127425;23;20414;-83
2021/07/22 03:48:41;;;;;;;9.83;7.20;;;16.90;98.30;;;;;;5118524;23;20430;-82
2021/07/22 03:50:49;;;;;;;10.90;7.90;;;16.90;98.30;;;;;;5126568;23;20446;-83
2021/07/22 03:52:55;;;;;;;11.00;6.77;;;17.10;98.30;;;;;;5118271;23;20435;-82
2021/07/22 03:54:57;;;;;;;14.30;8.83;;;17.20;98.30;;;;;;5117923;23;20748;-82
2021/07/22 03:57:02;;;;;;;9.77;7.70;;;17.30;98.30;;;;;;5117895;23;20436;-83
2021/07/22 03:59:05;;;;;;;13.13;9.03;;;17.20;98.30;;;;;;5124572;23;20426;-83
2021/07/22 04:06:22;;;;;;;9.70;7.93;;;17.20;98.30;;;;;;5120602;23;20430;-82
2021/07/22 04:09:12;;;;;;;13.37;7.67;;;17.30;98.30;;;;;;5123843;23;20429;-82
2021/07/22 04:17:59;;;;;;;7.67;6.87;;;17.20;98.30;;;;;;5069174;23;20434;-82
2021/07/22 04:20:08;;;;;;;9.63;7.90;;;17.20;98.30;;;;;;5126142;23;20495;-82
2021/07/22 04:49:51;;;;;;;12.47;10.60;;;18.00;98.30;;;;;;5002483;23;20395;-81
2021/07/22 04:51:58;;;;;;;11.67;9.93;;;18.20;98.30;;;;;;5074583;23;20450;-82
2021/07/22 04:54:32;;;;;;;11.73;8.93;;;18.20;98.30;;;;;;5074740;23;20423;-82
2021/07/22 05:25:27;;;;;;;7.90;6.80;;;17.90;98.30;;;;;;4925234;24;20429;-83
2021/07/22 05:27:57;;;;;;;11.63;7.10;;;17.90;98.30;;;;;;4940541;23;20485;-82
2021/07/22 05:33:49;;;;;;;13.10;7.63;;;18.10;98.30;;;;;;4995175;23;20418;-84
2021/07/22 07:37:44;;;;;;;6.67;5.57;;;19.70;97.70;;;;;;4856495;24;20919;-85
2021/07/22 07:43:35;;;;;;;7.10;5.63;;;20.10;97.70;;;;;;5001539;23;20511;-84
2021/07/22 07:47:02;;;;;;;9.83;5.80;;;20.00;97.10;;;;;;4993328;23;20427;-84
2021/07/22 07:56:27;;;;;;;6.80;5.03;;;20.00;97.00;;;;;;4879224;24;21043;-84
2021/07/22 07:59:13;;;;;;;5.70;5.10;;;20.10;95.30;;;;;;4879565;24;20438;-84
2021/07/22 08:01:16;;;;;;;5.93;5.30;;;20.10;96.20;;;;;;4886760;24;20460;-82
2021/07/22 08:03:23;;;;;;;6.10;5.43;;;20.10;96.10;;;;;;4887034;24;20436;-83
2021/07/22 08:18:40;;;;;;;6.43;5.53;;;20.10;95.90;;;;;;4879427;24;20522;-84
2021/07/22 08:23:59;;;;;;;6.47;5.77;;;19.90;96.60;;;;;;4901639;24;20785;-84
2021/07/22 08:26:05;;;;;;;6.73;5.67;;;19.90;97.20;;;;;;4911250;24;20430;-85
2021/07/22 08:28:15;;;;;;;6.60;5.90;;;20.00;97.60;;;;;;4950449;24;20441;-84
2021/07/22 08:30:22;;;;;;;7.80;6.40;;;20.20;96.40;;;;;;4956630;24;20432;-85
2021/07/22 08:32:25;;;;;;;7.00;5.97;;;20.00;96.60;;;;;;4956656;24;20472;-84
2021/07/22 08:34:28;;;;;;;6.30;5.70;;;19.80;96.20;;;;;;5034760;23;20512;-85
2021/07/22 08:36:31;;;;;;;7.67;6.00;;;19.60;97.00;;;;;;5044591;23;20511;-84
2021/07/22 08:38:34;;;;;;;7.80;6.30;;;19.70;96.10;;;;;;5044511;23;20504;-82
2021/07/22 08:40:40;;;;;;;7.53;6.10;;;19.90;96.10;;;;;;5051183;23;20688;-81
2021/07/22 08:42:45;;;;;;;8.03;6.20;;;20.00;95.30;;;;;;5051993;23;20433;-82
2021/07/22 08:44:49;;;;;;;8.50;5.70;;;20.20;94.30;;;;;;5044328;23;20433;-81
2021/07/22 08:46:54;;;;;;;6.37;5.70;;;20.30;94.10;;;;;;5052444;23;20429;-81
2021/07/22 08:48:58;;;;;;;7.67;5.73;;;20.30;94.50;;;;;;5043216;23;20469;-82
2021/07/22 08:51:01;;;;;;;8.23;6.13;;;20.30;94.50;;;;;;5051450;23;20543;-82
2021/07/22 08:53:09;;;;;;;5.80;5.30;;;20.30;95.20;;;;;;5053365;23;20479;-81
2021/07/22 08:55:12;;;;;;;8.20;5.97;;;20.20;94.10;;;;;;5060030;23;20483;-82
2021/07/22 08:57:18;;;;;;;6.07;5.47;;;20.20;94.20;;;;;;5129467;23;20461;-82
2021/07/22 08:59:24;;;;;;;6.90;5.20;;;20.30;93.90;;;;;;5125179;23;20456;-82
2021/07/22 09:01:32;;;;;;;6.67;5.80;;;20.70;94.40;;;;;;5129586;23;20481;-81
2021/07/22 09:03:36;;;;;;;7.63;5.20;;;20.90;92.30;;;;;;5125320;23;20405;-82
2021/07/22 09:06:00;;;;;;;6.17;5.20;;;20.90;91.70;;;;;;5117393;23;20995;-82
2021/07/22 09:08:03;;;;;;;6.27;5.30;;;21.00;91.40;;;;;;5125441;23;20812;-81
2021/07/22 09:10:14;;;;;;;6.83;5.20;;;20.90;91.30;;;;;;5127315;23;20485;-82
2021/07/22 09:12:17;;;;;;;7.07;5.60;;;21.10;90.60;;;;;;5127204;23;20434;-83
2021/07/22 09:14:22;;;;;;;6.23;5.27;;;20.90;91.60;;;;;;5127840;23;20493;-82
2021/07/22 09:16:35;;;;;;;6.40;5.40;;;21.00;92.90;;;;;;5118375;23;20445;-82
2021/07/22 09:18:45;;;;;;;9.47;5.97;;;21.50;91.70;;;;;;5126989;23;20406;-82
2021/07/22 09:20:48;;;;;;;11.30;6.47;;;21.50;91.30;;;;;;5128953;23;20410;-82
2021/07/22 09:22:51;;;;;;;5.67;5.17;;;21.50;90.90;;;;;;5126721;23;20516;-82
2021/07/22 09:24:55;;;;;;;6.63;5.40;;;21.40;91.30;;;;;;5125470;23;20457;-83
2021/07/22 09:26:58;;;;;;;7.13;5.13;;;21.60;91.90;;;;;;5126573;23;20458;-82
2021/07/22 09:29:06;;;;;;;7.27;5.30;;;21.80;91.40;;;;;;5127473;23;20426;-81
2021/07/22 09:31:09;;;;;;;8.33;5.67;;;22.00;89.80;;;;;;5117600;23;20488;-81
2021/07/22 09:33:12;;;;;;;5.87;5.30;;;21.50;90.00;;;;;;5124688;23;20999;-82
2021/07/22 09:35:18;;;;;;;6.70;5.53;;;21.30;91.80;;;;;;5116175;23;20999;-82
2021/07/22 09:37:25;;;;;;;6.93;6.20;;;21.50;91.60;;;;;;5125236;23;20442;-83
2021/07/22 09:39:29;;;;;;;6.57;5.30;;;21.60;90.80;;;;;;5125028;23;20422;-82
2021/07/22 09:41:33;;;;;;;6.63;5.93;;;21.60;90.50;;;;;;5127915;23;20437;-82
2021/07/22 09:43:41;;;;;;;7.70;5.90;;;21.60;90.80;;;;;;5125870;23;20452;-83
2021/07/22 09:45:48;;;;;;;6.33;5.73;;;21.70;91.20;;;;;;5125653;23;20421;-82
2021/07/22 09:47:54;;;;;;;6.53;5.30;;;21.60;91.40;;;;;;5126122;23;20406;-82
2021/07/22 09:50:09;;;;;;;6.30;5.30;;;22.00;91.60;;;;;;5125978;23;20453;-82
2021/07/22 09:52:24;;;;;;;9.93;7.30;;;22.40;87.90;;;;;;5126013;23;20462;-85
2021/07/22 09:54:36;;;;;;;7.77;6.00;;;22.30;86.30;;;;;;5115134;23;20807;-84
2021/07/22 09:56:40;;;;;;;6.63;5.90;;;22.30;87.60;;;;;;5124754;23;20425;-85
2021/07/22 09:58:44;;;;;;;6.03;5.43;;;22.30;88.80;;;;;;5116179;23;20903;-84
2021/07/22 10:00:48;;;;;;;6.00;5.37;;;22.20;88.40;;;;;;5125141;23;20464;-84
2021/07/22 10:02:53;;;;;;;7.90;5.90;;;22.00;88.60;;;;;;5125277;23;20453;-84
2021/07/22 10:05:01;;;;;;;7.47;5.90;;;22.00;89.30;;;;;;5116793;23;20469;-84
2021/07/22 10:07:05;;;;;;;6.07;5.50;;;21.90;89.20;;;;;;5117493;23;20577;-84
2021/07/22 10:09:10;;;;;;;7.53;6.00;;;22.00;90.00;;;;;;5117595;23;20716;-84
2021/07/22 10:11:16;;;;;;;5.87;5.20;;;22.40;88.80;;;;;;5115930;23;20446;-85
2021/07/22 10:13:27;;;;;;;5.23;4.70;;;22.80;87.60;;;;;;5124525;23;20501;-85
2021/07/22 10:15:35;;;;;;;7.60;5.17;;;22.70;86.80;;;;;;5124264;23;20448;-86
2021/07/22 10:17:39;;;;;;;8.03;5.23;;;22.80;85.70;;;;;;5124399;23;20960;-85
2021/07/22 10:19:42;;;;;;;5.20;4.60;;;22.80;85.80;;;;;;5124137;23;20424;-85
2021/07/22 10:21:46;;;;;;;5.70;4.93;;;22.80;85.10;;;;;;5124454;23;20521;-85
2021/07/22 10:23:50;;;;;;;5.63;4.80;;;22.60;85.40;;;;;;5124341;23;20504;-85
2021/07/22 10:25:55;;;;;;;5.27;4.80;;;22.50;85.50;;;;;;5124554;23;20991;-85
2021/07/22 10:27:59;;;;;;;5.67;5.17;;;22.30;85.30;;;;;;5124312;23;20434;-85
2021/07/22 10:30:07;;;;;;;5.27;4.77;;;22.20;85.00;;;;;;5124176;23;20431;-85
2021/07/22 10:32:12;;;;;;;5.10;4.60;;;22.10;86.70;;;;;;5124751;23;20442;-85
2021/07/22 10:34:19;;;;;;;5.30;4.80;;;22.10;85.70;;;;;;5123415;23;20425;-85
2021/07/22 10:36:23;;;;;;;6.33;5.20;;;22.10;86.00;;;;;;5124818;23;20465;-84
2021/07/22 10:38:43;;;;;;;6.20;4.80;;;22.00;86.00;;;;;;5124433;23;20473;-83
2021/07/22 10:40:51;;;;;;;5.83;5.17;;;22.10;86.50;;;;;;5116570;23;20437;-84
2021/07/22 10:42:56;;;;;;;4.90;4.50;;;22.30;86.30;;;;;;5124687;23;20500;-85
2021/07/22 10:44:59;;;;;;;6.53;4.73;;;22.50;85.30;;;;;;5124713;23;20433;-84
2021/07/22 10:47:05;;;;;;;7.40;5.13;;;22.80;84.60;;;;;;5124422;23;20509;-85
2021/07/22 10:49:14;;;;;;;7.27;6.30;;;22.80;85.60;;;;;;5123795;23;20429;-85
2021/07/22 10:51:20;;;;;;;4.97;4.40;;;23.00;85.40;;;;;;5124833;23;20452;-85
2021/07/22 10:53:51;;;;;;;6.77;4.97;;;23.00;84.60;;;;;;5124476;23;20480;-85
2021/07/22 10:55:52;;;;;;;7.23;5.30;;;22.70;85.60;;;;;;5116632;23;20461;-85
2021/07/22 10:57:57;;;;;;;5.90;5.30;;;22.50;85.50;;;;;;5124092;23;20457;-85
2021/07/22 11:00:00;;;;;;;5.27;4.77;;;22.30;86.40;;;;;;5124518;23;20432;-85
2021/07/22 11:02:03;;;;;;;5.80;5.23;;;22.90;87.00;;;;;;5124904;23;20450;-84
2021/07/22 11:04:06;;;;;;;5.73;5.23;;;23.60;85.30;;;;;;5124145;23;20794;-85
2021/07/22 11:06:10;;;;;;;5.63;5.13;;;23.60;82.50;;;;;;5124494;23;20441;-84
2021/07/22 11:08:18;;;;;;;5.17;4.67;;;23.50;82.80;;;;;;5115961;23;20504;-84
2021/07/22 11:10:51;;;;;;;6.57;4.70;;;23.80;82.30;;;;;;5116439;23;20802;-84
2021/07/22 11:12:56;;;;;;;7.80;5.57;;;24.00;81.70;;;;;;5124609;23;20430;-84
2021/07/22 11:15:00;;;;;;;5.53;4.50;;;24.00;83.10;;;;;;5124109;23;20425;-85
2021/07/22 11:17:05;;;;;;;7.20;5.07;;;24.20;82.80;;;;;;5116580;23;20445;-84
2021/07/22 11:19:14;;;;;;;7.13;5.07;;;24.20;81.70;;;;;;5116074;23;20718;-84
2021/07/22 11:21:19;;;;;;;6.53;4.83;;;24.20;82.30;;;;;;5124500;23;20445;-84
2021/07/22 11:23:22;;;;;;;5.73;4.40;;;24.60;81.30;;;;;;5117914;23;20506;-84
2021/07/22 11:25:27;;;;;;;6.10;4.03;;;24.50;81.40;;;;;;5116238;23;20429;-84
2021/07/22 11:27:30;;;;;;;4.60;4.00;;;24.60;80.90;;;;;;5124030;23;20450;-85
2021/07/22 11:29:35;;;;;;;4.90;4.40;;;24.80;80.40;;;;;;5128058;23;20505;-85
2021/07/22 11:31:41;;;;;;;4.23;3.83;;;24.60;81.00;;;;;;5117094;23;20510;-85
2021/07/22 11:33:44;;;;;;;7.53;4.07;;;24.50;81.40;;;;;;5127373;23;20410;-85
2021/07/22 11:35:56;;;;;;;5.60;4.40;;;24.50;81.10;;;;;;5120862;23;20465;-84
2021/07/22 11:38:00;;;;;;;6.50;3.90;;;24.70;81.30;;;;;;5128172;23;20453;-85
2021/07/22 11:40:11;;;;;;;6.87;4.10;;;25.10;81.10;;;;;;5129172;23;20433;-84
2021/07/22 11:42:18;;;;;;;4.87;3.90;;;25.30;79.30;;;;;;5129309;23;20449;-84
2021/07/22 11:44:24;;;;;;;5.03;3.70;;;25.00;79.20;;;;;;5123203;23;20414;-84
2021/07/22 11:46:40;;;;;;;5.27;3.83;;;24.60;80.30;;;;;;5129999;23;20410;-84
2021/07/22 11:48:44;;;;;;;8.20;3.90;;;24.70;79.10;;;;;;5129472;23;20418;-84
2021/07/22 11:50:58;;;;;;;5.50;4.10;;;25.20;80.00;;;;;;5126168;23;20762;-85
2021/07/22 11:53:20;;;;;;;4.33;3.70;;;25.60;79.30;;;;;;5125618;23;20481;-85
2021/07/22 11:55:41;;;;;;;3.70;3.30;;;26.10;78.60;;;;;;5125849;23;20446;-85
2021/07/22 11:57:46;;;;;;;4.07;3.53;;;26.00;76.40;;;;;;5124871;23;20449;-84
2021/07/22 11:59:52;;;;;;;3.80;3.50;;;25.60;76.80;;;;;;5124886;23;20433;-84
2021/07/22 12:02:05;;;;;;;5.30;4.23;;;25.50;77.40;;;;;;5125167;23;20500;-84
2021/07/22 12:04:10;;;;;;;7.57;3.50;;;25.50;79.20;;;;;;5126771;23;20496;-84
2021/07/22 12:06:15;;;;;;;5.23;3.40;;;25.60;78.20;;;;;;5129466;23;20445;-85
2021/07/22 12:08:20;;;;;;;4.60;3.10;;;25.60;78.30;;;;;;5129491;23;20431;-84
2021/07/22 12:10:26;;;;;;;5.97;3.27;;;25.50;78.40;;;;;;5130978;23;20457;-85
2021/07/22 12:12:29;;;;;;;4.43;3.30;;;25.10;79.70;;;;;;5129415;23;20446;-84
2021/07/22 12:14:41;;;;;;;3.80;3.27;;;25.20;79.50;;;;;;5131166;23;20445;-85
2021/07/22 12:16:44;;;;;;;5.80;3.40;;;25.50;78.80;;;;;;5131818;23;20772;-84
2021/07/22 12:18:50;;;;;;;5.27;3.40;;;25.90;78.80;;;;;;5125295;23;20422;-84
2021/07/22 12:20:53;;;;;;;3.30;3.10;;;26.30;78.00;;;;;;5117841;23;20461;-85
2021/07/22 12:22:56;;;;;;;4.17;3.40;;;26.90;76.80;;;;;;5117312;23;20520;-85
2021/07/22 12:25:10;;;;;;;4.03;3.10;;;27.50;74.90;;;;;;5125465;23;20832;-84
2021/07/22 12:27:33;;;;;;;3.33;3.03;;;27.70;74.60;;;;;;5125622;23;20520;-85
2021/07/22 12:29:36;;;;;;;4.53;2.90;;;28.00;74.80;;;;;;5124921;23;20528;-86
2021/07/22 12:31:41;;;;;;;4.30;3.00;;;28.10;71.90;;;;;;5125575;23;21217;-85
2021/07/22 12:33:55;;;;;;;4.23;2.80;;;27.20;73.20;;;;;;5125645;23;20432;-84
2021/07/22 12:36:00;;;;;;;3.80;3.40;;;26.40;74.50;;;;;;5125575;23;20402;-84
2021/07/22 12:38:04;;;;;;;3.43;3.13;;;26.20;75.40;;;;;;5124792;23;20976;-85
2021/07/22 12:40:11;;;;;;;4.40;3.30;;;26.70;73.50;;;;;;5126489;23;20429;-83
2021/07/22 12:42:15;;;;;;;4.23;3.20;;;26.80;73.10;;;;;;5118898;23;20454;-84
2021/07/22 12:44:44;;;;;;;4.00;2.73;;;26.90;73.40;;;;;;5126682;23;20428;-84
2021/07/22 12:46:47;;;;;;;3.57;2.90;;;27.60;72.50;;;;;;5126982;23;20425;-84
2021/07/22 12:48:50;;;;;;;4.90;3.30;;;27.90;71.70;;;;;;5127356;23;20445;-85
2021/07/22 12:50:53;;;;;;;3.60;3.03;;;27.80;71.80;;;;;;5126812;23;20802;-84
2021/07/22 12:53:00;;;;;;;5.10;3.20;;;28.00;72.70;;;;;;5126811;23;20429;-84
2021/07/22 12:55:04;;;;;;;4.00;2.80;;;28.50;71.30;;;;;;5126783;23;20891;-84
2021/07/22 12:57:08;;;;;;;5.30;3.07;;;28.30;70.80;;;;;;5118785;23;20958;-84
2021/07/22 12:59:13;;;;;;;4.53;3.00;;;28.10;72.00;;;;;;5126761;23;20421;-84
2021/07/22 13:01:20;;;;;;;5.00;3.43;;;28.00;72.00;;;;;;5127944;23;20518;-84
2021/07/22 13:03:23;;;;;;;4.90;3.20;;;27.90;70.90;;;;;;5127103;23;20833;-84
2021/07/22 13:05:27;;;;;;;3.70;3.30;;;27.50;71.50;;;;;;5126573;23;20571;-84
2021/07/22 13:07:31;;;;;;;3.57;2.60;;;26.80;72.70;;;;;;5126942;23;20417;-84
2021/07/22 13:09:35;;;;;;;4.70;2.90;;;26.70;73.40;;;;;;5126366;23;20425;-84
2021/07/22 13:11:38;;;;;;;5.97;3.23;;;27.10;72.70;;;;;;5127227;23;20521;-84
2021/07/22 13:13:42;;;;;;;6.47;3.13;;;27.60;72.30;;;;;;5126749;23;20513;-84
2021/07/22 13:15:46;;;;;;;5.40;2.90;;;27.60;72.40;;;;;;5118097;23;20907;-85
2021/07/22 13:17:49;;;;;;;5.33;3.43;;;27.70;71.60;;;;;;5126749;23;20422;-85
2021/07/22 13:19:52;;;;;;;4.10;2.90;;;27.30;72.60;;;;;;5126147;23;20421;-83
2021/07/22 13:21:55;;;;;;;3.33;2.80;;;27.40;72.10;;;;;;5126105;23;20974;-84
2021/07/22 13:23:58;;;;;;;5.53;3.33;;;27.50;72.70;;;;;;5119336;23;20533;-84
2021/07/22 13:26:04;;;;;;;5.77;3.40;;;27.50;72.80;;;;;;5127805;23;20437;-84
2021/07/22 13:28:07;;;;;;;5.80;3.30;;;27.80;71.40;;;;;;5127944;23;20445;-83
2021/07/22 13:30:12;;;;;;;3.87;3.03;;;27.00;73.30;;;;;;5129107;23;20429;-84
2021/07/22 13:32:14;;;;;;;6.53;3.40;;;26.50;74.00;;;;;;5128541;23;20972;-84
2021/07/22 13:34:18;;;;;;;3.23;2.80;;;26.30;75.10;;;;;;5127826;23;20815;-84
2021/07/22 13:36:21;;;;;;;5.20;3.10;;;26.50;74.90;;;;;;5127672;23;20517;-84
2021/07/22 13:38:34;;;;;;;6.13;4.63;;;27.20;75.20;;;;;;5126649;23;20457;-83
2021/07/22 13:40:37;;;;;;;7.07;5.30;;;27.90;72.60;;;;;;5127619;23;20485;-84
2021/07/22 13:42:42;;;;;;;6.33;3.30;;;27.70;72.80;;;;;;5119666;23;20469;-84
2021/07/22 13:44:45;;;;;;;3.63;3.27;;;27.40;72.60;;;;;;5127592;23;20501;-85
2021/07/22 13:46:48;;;;;;;4.80;3.43;;;27.00;73.30;;;;;;5127191;23;20834;-83
2021/07/22 13:48:53;;;;;;;6.10;3.47;;;26.60;74.60;;;;;;5127067;23;20442;-84
2021/07/22 13:50:57;;;;;;;4.50;3.60;;;26.70;75.50;;;;;;5127287;23;20438;-84
2021/07/22 13:53:00;;;;;;;3.87;3.07;;;26.80;75.20;;;;;;5127592;23;20509;-83
2021/07/22 13:55:06;;;;;;;5.70;3.40;;;27.60;73.20;;;;;;5127073;23;20840;-83
2021/07/22 13:57:11;;;;;;;3.60;2.50;;;28.20;72.10;;;;;;5126847;23;20876;-84
2021/07/22 13:59:16;;;;;;;5.17;3.20;;;28.30;70.90;;;;;;5126742;23;20418;-85
2021/07/22 14:01:19;;;;;;;4.10;3.33;;;27.60;71.70;;;;;;5127004;23;20445;-84
2021/07/22 14:03:22;;;;;;;4.50;2.87;;;27.30;72.90;;;;;;5126690;23;20425;-84
2021/07/22 14:05:25;;;;;;;5.13;2.83;;;27.90;72.70;;;;;;5127105;23;20445;-84
2021/07/22 14:07:30;;;;;;;5.17;2.80;;;28.50;71.80;;;;;;5118165;23;20496;-84
2021/07/22 14:09:36;;;;;;;3.53;2.90;;;29.30;70.50;;;;;;5126254;23;20441;-84
2021/07/22 14:11:45;;;;;;;4.53;2.80;;;29.40;68.70;;;;;;5125369;23;20511;-84
2021/07/22 14:13:48;;;;;;;5.10;2.90;;;29.30;69.80;;;;;;5118132;23;20429;-84
2021/07/22 14:15:53;;;;;;;3.40;2.57;;;29.10;68.30;;;;;;5126434;23;20533;-84
2021/07/22 14:17:56;;;;;;;4.23;2.97;;;27.80;70.80;;;;;;5117662;23;21014;-86
2021/07/22 14:19:59;;;;;;;3.33;3.00;;;27.40;72.80;;;;;;5117683;23;20512;-84
2021/07/22 14:22:02;;;;;;;5.07;3.77;;;27.20;72.60;;;;;;5126500;23;20481;-83
2021/07/22 14:24:08;;;;;;;3.50;3.20;;;26.80;73.40;;;;;;5126349;23;20455;-84
2021/07/22 14:26:11;;;;;;;4.03;3.20;;;27.50;73.90;;;;;;5125703;23;20425;-84
2021/07/22 14:28:14;;;;;;;3.80;3.40;;;28.20;70.90;;;;;;5125724;23;20433;-84
2021/07/22 14:30:17;;;;;;;3.43;2.80;;;28.20;71.20;;;;;;5126450;23;20520;-84
2021/07/22 14:32:22;;;;;;;9.73;3.10;;;27.90;70.90;;;;;;5126398;23;21021;-84
2021/07/22 14:34:25;;;;;;;4.97;4.27;;;27.30;72.10;;;;;;5126128;23;20544;-85